sensor_id;sensor_type;location;lat;lon;timestamp;temperature;humidity
23283;DHT22;11810;51.178;3.878;2023-03-21T00:00:54;11.50;99.90
23283;DHT22;11810;51.178;3.878;2023-03-21T00:03:20;11.50;99.90
23283;DHT22;11810;51.178;3.878;2023-03-21T00:05:46;11.40;99.90
23283;DHT22;11810;51.178;3.878;2023-03-21T00:08:17;11.40;99.90
23283;DHT22;11810;51.178;3.878;2023-03-21T00:10:43;11.50;99.90
23283;DHT22;11810;51.178;3.878;2023-03-21T00:13:13;11.50;99.90
23283;DHT22;11810;51.178;3.878;2023-03-21T00:15:40;11.60;99.90
23283;DHT22;11810;51.178;3.878;2023-03-21T00:20:04;11.50;99.90
23283;DHT22;11810;51.178;3.878;2023-03-21T00:22:32;11.60;99.90
23283;DHT22;11810;51.178;3.878;2023-03-21T00:24:58;11.50;99.90
23283;DHT22;11810;51.178;3.878;2023-03-21T00:27:24;11.60;99.90
23283;DHT22;11810;51.178;3.878;2023-03-21T00:29:50;11.70;99.90
23283;DHT22;11810;51.178;3.878;2023-03-21T00:32:17;11.60;99.90
23283;DHT22;11810;51.178;3.878;2023-03-21T00:34:43;11.70;99.90
23283;DHT22;11810;51.178;3.878;2023-03-21T00:37:10;11.70;99.90
23283;DHT22;11810;51.178;3.878;2023-03-21T00:39:39;11.70;99.90
23283;DHT22;11810;51.178;3.878;2023-03-21T00:42:05;11.60;99.90
23283;DHT22;11810;51.178;3.878;2023-03-21T00:44:31;11.60;99.90
23283;DHT22;11810;51.178;3.878;2023-03-21T00:47:04;11.70;99.90
23283;DHT22;11810;51.178;3.878;2023-03-21T00:49:30;11.60;99.90
23283;DHT22;11810;51.178;3.878;2023-03-21T00:52:02;11.60;99.90
23283;DHT22;11810;51.178;3.878;2023-03-21T00:54:28;11.60;99.90
23283;DHT22;11810;51.178;3.878;2023-03-21T00:56:54;11.50;99.90
23283;DHT22;11810;51.178;3.878;2023-03-21T00:59:20;11.50;99.90
23283;DHT22;11810;51.178;3.878;2023-03-21T01:01:46;11.60;99.90
23283;DHT22;11810;51.178;3.878;2023-03-21T01:04:13;11.60;99.90
23283;DHT22;11810;51.178;3.878;2023-03-21T01:06:42;11.60;99.90
23283;DHT22;11810;51.178;3.878;2023-03-21T01:09:14;11.70;99.90
23283;DHT22;11810;51.178;3.878;2023-03-21T01:11:41;11.70;99.90
23283;DHT22;11810;51.178;3.878;2023-03-21T01:14:07;11.70;99.90
23283;DHT22;11810;51.178;3.878;2023-03-21T01:16:34;11.70;99.90
23283;DHT22;11810;51.178;3.878;2023-03-21T01:19:01;11.50;99.90
23283;DHT22;11810;51.178;3.878;2023-03-21T01:21:28;11.50;99.90
23283;DHT22;11810;51.178;3.878;2023-03-21T01:23:54;11.50;99.90
23283;DHT22;11810;51.178;3.878;2023-03-21T01:26:20;11.40;99.90
23283;DHT22;11810;51.178;3.878;2023-03-21T01:28:46;11.40;99.90
23283;DHT22;11810;51.178;3.878;2023-03-21T01:31:14;11.40;99.90
23283;DHT22;11810;51.178;3.878;2023-03-21T01:33:40;11.40;99.90
23283;DHT22;11810;51.178;3.878;2023-03-21T01:36:07;11.50;99.90
23283;DHT22;11810;51.178;3.878;2023-03-21T01:38:34;11.40;99.90
23283;DHT22;11810;51.178;3.878;2023-03-21T01:41:01;11.30;99.90
23283;DHT22;11810;51.178;3.878;2023-03-21T01:43:30;11.30;99.90
23283;DHT22;11810;51.178;3.878;2023-03-21T01:46:16;11.20;99.90
23283;DHT22;11810;51.178;3.878;2023-03-21T01:48:52;11.20;99.90
23283;DHT22;11810;51.178;3.878;2023-03-21T01:51:21;11.20;99.90
23283;DHT22;11810;51.178;3.878;2023-03-21T01:53:47;11.20;99.90
23283;DHT22;11810;51.178;3.878;2023-03-21T01:56:23;11.20;99.90
23283;DHT22;11810;51.178;3.878;2023-03-21T01:58:52;11.30;99.90
23283;DHT22;11810;51.178;3.878;2023-03-21T02:01:22;11.30;99.90
23283;DHT22;11810;51.178;3.878;2023-03-21T02:03:49;11.20;99.90
23283;DHT22;11810;51.178;3.878;2023-03-21T02:06:32;11.10;99.90
23283;DHT22;11810;51.178;3.878;2023-03-21T02:09:03;11.10;99.90
23283;DHT22;11810;51.178;3.878;2023-03-21T02:11:30;11.10;99.90
23283;DHT22;11810;51.178;3.878;2023-03-21T02:13:57;11.10;99.90
23283;DHT22;11810;51.178;3.878;2023-03-21T02:16:47;11.10;99.90
23283;DHT22;11810;51.178;3.878;2023-03-21T02:21:52;11.20;99.90
23283;DHT22;11810;51.178;3.878;2023-03-21T02:27:15;11.20;99.90
23283;DHT22;11810;51.178;3.878;2023-03-21T02:38:17;11.00;99.90
23283;DHT22;11810;51.178;3.878;2023-03-21T02:48:38;11.00;99.90
23283;DHT22;11810;51.178;3.878;2023-03-21T02:51:07;10.90;99.90
23283;DHT22;11810;51.178;3.878;2023-03-21T02:53:39;11.00;99.90
23283;DHT22;11810;51.178;3.878;2023-03-21T02:56:07;11.00;99.90
23283;DHT22;11810;51.178;3.878;2023-03-21T02:58:37;11.00;99.90
23283;DHT22;11810;51.178;3.878;2023-03-21T03:01:04;11.10;99.90
23283;DHT22;11810;51.178;3.878;2023-03-21T03:03:31;11.00;99.90
23283;DHT22;11810;51.178;3.878;2023-03-21T03:06:08;11.10;99.90
23283;DHT22;11810;51.178;3.878;2023-03-21T03:09:03;11.20;99.90
23283;DHT22;11810;51.178;3.878;2023-03-21T03:11:38;11.10;99.90
23283;DHT22;11810;51.178;3.878;2023-03-21T03:19:31;11.20;99.90
23283;DHT22;11810;51.178;3.878;2023-03-21T03:24:30;11.30;99.90
23283;DHT22;11810;51.178;3.878;2023-03-21T03:27:05;11.30;99.90
23283;DHT22;11810;51.178;3.878;2023-03-21T03:29:36;11.30;99.90
23283;DHT22;11810;51.178;3.878;2023-03-21T03:32:07;11.30;99.90
23283;DHT22;11810;51.178;3.878;2023-03-21T03:34:38;11.30;99.90
23283;DHT22;11810;51.178;3.878;2023-03-21T03:37:08;11.40;99.90
23283;DHT22;11810;51.178;3.878;2023-03-21T03:39:40;11.30;99.90
23283;DHT22;11810;51.178;3.878;2023-03-21T03:42:20;11.40;99.90
23283;DHT22;11810;51.178;3.878;2023-03-21T03:44:49;11.40;99.90
23283;DHT22;11810;51.178;3.878;2023-03-21T03:52:34;11.40;99.90
23283;DHT22;11810;51.178;3.878;2023-03-21T03:55:02;11.40;99.90
23283;DHT22;11810;51.178;3.878;2023-03-21T03:57:28;11.40;99.90
23283;DHT22;11810;51.178;3.878;2023-03-21T03:59:54;11.30;99.90
23283;DHT22;11810;51.178;3.878;2023-03-21T04:02:20;11.30;99.90
23283;DHT22;11810;51.178;3.878;2023-03-21T04:04:47;11.30;99.90
23283;DHT22;11810;51.178;3.878;2023-03-21T04:07:18;11.40;99.90
23283;DHT22;11810;51.178;3.878;2023-03-21T04:09:44;11.40;99.90
23283;DHT22;11810;51.178;3.878;2023-03-21T04:12:11;11.50;99.90
23283;DHT22;11810;51.178;3.878;2023-03-21T04:14:37;11.50;99.90
23283;DHT22;11810;51.178;3.878;2023-03-21T04:17:03;11.40;99.90
23283;DHT22;11810;51.178;3.878;2023-03-21T04:19:29;11.40;99.90
23283;DHT22;11810;51.178;3.878;2023-03-21T04:21:55;11.40;99.90
23283;DHT22;11810;51.178;3.878;2023-03-21T04:24:21;11.40;99.90
23283;DHT22;11810;51.178;3.878;2023-03-21T04:26:47;11.50;99.90
23283;DHT22;11810;51.178;3.878;2023-03-21T04:29:13;11.50;99.90
23283;DHT22;11810;51.178;3.878;2023-03-21T04:31:39;11.40;99.90
23283;DHT22;11810;51.178;3.878;2023-03-21T04:34:06;11.40;99.90
23283;DHT22;11810;51.178;3.878;2023-03-21T04:36:35;11.40;99.90
23283;DHT22;11810;51.178;3.878;2023-03-21T04:39:08;11.40;99.90
23283;DHT22;11810;51.178;3.878;2023-03-21T04:41:42;11.30;99.90
23283;DHT22;11810;51.178;3.878;2023-03-21T04:44:08;11.30;99.90
23283;DHT22;11810;51.178;3.878;2023-03-21T04:46:35;11.30;99.90
23283;DHT22;11810;51.178;3.878;2023-03-21T04:49:01;11.30;99.90
23283;DHT22;11810;51.178;3.878;2023-03-21T04:51:27;11.30;99.90
23283;DHT22;11810;51.178;3.878;2023-03-21T04:53:53;11.30;99.90
23283;DHT22;11810;51.178;3.878;2023-03-21T04:56:31;11.30;99.90
23283;DHT22;11810;51.178;3.878;2023-03-21T04:59:10;11.30;99.90
23283;DHT22;11810;51.178;3.878;2023-03-21T05:01:36;11.20;99.90
23283;DHT22;11810;51.178;3.878;2023-03-21T05:04:03;11.00;99.90
23283;DHT22;11810;51.178;3.878;2023-03-21T05:06:29;10.90;99.90
23283;DHT22;11810;51.178;3.878;2023-03-21T05:08:57;10.80;99.90
23283;DHT22;11810;51.178;3.878;2023-03-21T05:11:30;10.80;99.90
23283;DHT22;11810;51.178;3.878;2023-03-21T05:13:58;10.70;99.90
23283;DHT22;11810;51.178;3.878;2023-03-21T05:16:24;10.70;99.90
23283;DHT22;11810;51.178;3.878;2023-03-21T05:18:58;10.70;99.90
23283;DHT22;11810;51.178;3.878;2023-03-21T05:21:29;10.60;99.90
23283;DHT22;11810;51.178;3.878;2023-03-21T05:23:59;10.60;99.90
23283;DHT22;11810;51.178;3.878;2023-03-21T05:26:28;10.30;99.90
23283;DHT22;11810;51.178;3.878;2023-03-21T05:28:54;10.40;99.90
23283;DHT22;11810;51.178;3.878;2023-03-21T05:31:21;10.30;99.90
23283;DHT22;11810;51.178;3.878;2023-03-21T05:33:47;10.40;99.90
23283;DHT22;11810;51.178;3.878;2023-03-21T05:36:13;10.40;99.90
23283;DHT22;11810;51.178;3.878;2023-03-21T05:38:39;10.40;99.90
23283;DHT22;11810;51.178;3.878;2023-03-21T05:41:14;10.40;99.90
23283;DHT22;11810;51.178;3.878;2023-03-21T05:43:40;10.50;99.90
23283;DHT22;11810;51.178;3.878;2023-03-21T05:46:07;10.40;99.90
23283;DHT22;11810;51.178;3.878;2023-03-21T05:48:34;10.40;99.90
23283;DHT22;11810;51.178;3.878;2023-03-21T05:51:01;10.40;99.90
23283;DHT22;11810;51.178;3.878;2023-03-21T05:53:27;10.40;99.90
23283;DHT22;11810;51.178;3.878;2023-03-21T05:55:53;10.50;99.90
23283;DHT22;11810;51.178;3.878;2023-03-21T05:58:19;10.50;99.90
23283;DHT22;11810;51.178;3.878;2023-03-21T06:00:45;10.60;99.90
23283;DHT22;11810;51.178;3.878;2023-03-21T06:03:11;10.60;99.90
23283;DHT22;11810;51.178;3.878;2023-03-21T06:05:37;10.60;99.90
23283;DHT22;11810;51.178;3.878;2023-03-21T06:08:02;10.60;99.90
23283;DHT22;11810;51.178;3.878;2023-03-21T06:10:29;10.60;99.90
23283;DHT22;11810;51.178;3.878;2023-03-21T06:12:55;10.70;99.90
23283;DHT22;11810;51.178;3.878;2023-03-21T06:15:20;10.70;99.90
23283;DHT22;11810;51.178;3.878;2023-03-21T06:17:46;10.70;99.90
23283;DHT22;11810;51.178;3.878;2023-03-21T06:20:12;10.70;99.90
23283;DHT22;11810;51.178;3.878;2023-03-21T06:22:39;10.60;99.90
23283;DHT22;11810;51.178;3.878;2023-03-21T06:25:06;10.60;99.90
23283;DHT22;11810;51.178;3.878;2023-03-21T06:27:33;10.70;99.90
23283;DHT22;11810;51.178;3.878;2023-03-21T06:29:59;10.70;99.90
23283;DHT22;11810;51.178;3.878;2023-03-21T06:32:25;10.70;99.90
23283;DHT22;11810;51.178;3.878;2023-03-21T06:34:52;10.70;99.90
23283;DHT22;11810;51.178;3.878;2023-03-21T06:37:18;10.70;99.90
23283;DHT22;11810;51.178;3.878;2023-03-21T06:39:44;10.70;99.90
23283;DHT22;11810;51.178;3.878;2023-03-21T06:42:12;10.80;99.90
23283;DHT22;11810;51.178;3.878;2023-03-21T06:44:38;10.90;99.90
23283;DHT22;11810;51.178;3.878;2023-03-21T06:47:04;11.00;99.90
23283;DHT22;11810;51.178;3.878;2023-03-21T06:49:31;10.80;99.90
23283;DHT22;11810;51.178;3.878;2023-03-21T06:51:56;11.00;99.90
23283;DHT22;11810;51.178;3.878;2023-03-21T06:54:22;11.00;99.90
23283;DHT22;11810;51.178;3.878;2023-03-21T06:56:48;11.10;99.90
23283;DHT22;11810;51.178;3.878;2023-03-21T06:59:15;11.10;99.90
23283;DHT22;11810;51.178;3.878;2023-03-21T07:01:41;11.10;99.90
23283;DHT22;11810;51.178;3.878;2023-03-21T07:04:09;11.20;99.90
23283;DHT22;11810;51.178;3.878;2023-03-21T07:06:36;11.10;99.90
23283;DHT22;11810;51.178;3.878;2023-03-21T07:09:03;11.20;99.90
23283;DHT22;11810;51.178;3.878;2023-03-21T07:11:30;11.30;99.90
23283;DHT22;11810;51.178;3.878;2023-03-21T07:13:57;11.20;99.90
23283;DHT22;11810;51.178;3.878;2023-03-21T07:16:23;11.20;99.90
23283;DHT22;11810;51.178;3.878;2023-03-21T07:18:50;11.30;99.90
23283;DHT22;11810;51.178;3.878;2023-03-21T07:21:16;11.40;99.90
23283;DHT22;11810;51.178;3.878;2023-03-21T07:23:43;11.60;99.90
23283;DHT22;11810;51.178;3.878;2023-03-21T07:26:09;11.60;99.90
23283;DHT22;11810;51.178;3.878;2023-03-21T07:28:35;11.50;99.90
23283;DHT22;11810;51.178;3.878;2023-03-21T07:31:56;11.50;99.90
23283;DHT22;11810;51.178;3.878;2023-03-21T07:34:22;11.50;99.90
23283;DHT22;11810;51.178;3.878;2023-03-21T07:36:48;11.60;99.90
23283;DHT22;11810;51.178;3.878;2023-03-21T07:39:14;11.60;99.90
23283;DHT22;11810;51.178;3.878;2023-03-21T07:41:40;11.70;99.90
23283;DHT22;11810;51.178;3.878;2023-03-21T07:44:06;11.70;99.90
23283;DHT22;11810;51.178;3.878;2023-03-21T07:46:32;11.80;99.90
23283;DHT22;11810;51.178;3.878;2023-03-21T07:48:58;11.80;99.90
23283;DHT22;11810;51.178;3.878;2023-03-21T07:51:24;11.90;99.90
23283;DHT22;11810;51.178;3.878;2023-03-21T07:53:50;12.10;99.90
23283;DHT22;11810;51.178;3.878;2023-03-21T07:56:16;12.20;99.90
23283;DHT22;11810;51.178;3.878;2023-03-21T07:58:42;12.20;99.90
23283;DHT22;11810;51.178;3.878;2023-03-21T08:01:08;12.40;99.90
23283;DHT22;11810;51.178;3.878;2023-03-21T08:03:34;12.50;99.90
23283;DHT22;11810;51.178;3.878;2023-03-21T08:05:59;12.60;99.90
23283;DHT22;11810;51.178;3.878;2023-03-21T08:08:26;12.80;99.90
23283;DHT22;11810;51.178;3.878;2023-03-21T08:10:52;12.90;99.90
23283;DHT22;11810;51.178;3.878;2023-03-21T08:13:18;13.10;99.90
23283;DHT22;11810;51.178;3.878;2023-03-21T08:15:43;13.20;99.90
23283;DHT22;11810;51.178;3.878;2023-03-21T08:18:09;13.40;99.90
23283;DHT22;11810;51.178;3.878;2023-03-21T08:20:36;13.40;99.90
23283;DHT22;11810;51.178;3.878;2023-03-21T08:23:02;13.40;99.90
23283;DHT22;11810;51.178;3.878;2023-03-21T08:25:29;13.60;99.90
23283;DHT22;11810;51.178;3.878;2023-03-21T08:27:55;13.70;99.90
23283;DHT22;11810;51.178;3.878;2023-03-21T08:30:27;13.80;99.90
23283;DHT22;11810;51.178;3.878;2023-03-21T08:32:57;13.90;99.90
23283;DHT22;11810;51.178;3.878;2023-03-21T08:35:24;14.10;99.90
23283;DHT22;11810;51.178;3.878;2023-03-21T08:37:50;14.40;99.90
23283;DHT22;11810;51.178;3.878;2023-03-21T08:40:17;14.60;99.90
23283;DHT22;11810;51.178;3.878;2023-03-21T08:42:44;14.70;99.90
23283;DHT22;11810;51.178;3.878;2023-03-21T08:45:11;14.90;99.90
23283;DHT22;11810;51.178;3.878;2023-03-21T08:47:38;14.80;99.90
23283;DHT22;11810;51.178;3.878;2023-03-21T08:50:06;14.90;99.90
23283;DHT22;11810;51.178;3.878;2023-03-21T08:52:32;14.90;99.90
23283;DHT22;11810;51.178;3.878;2023-03-21T08:54:58;15.00;99.90
23283;DHT22;11810;51.178;3.878;2023-03-21T08:57:27;14.90;99.90
23283;DHT22;11810;51.178;3.878;2023-03-21T08:59:53;14.80;99.90
23283;DHT22;11810;51.178;3.878;2023-03-21T09:02:19;14.70;99.90
23283;DHT22;11810;51.178;3.878;2023-03-21T09:04:45;14.60;99.90
23283;DHT22;11810;51.178;3.878;2023-03-21T09:07:12;14.50;99.90
23283;DHT22;11810;51.178;3.878;2023-03-21T09:09:39;14.60;99.90
23283;DHT22;11810;51.178;3.878;2023-03-21T09:12:06;14.50;99.90
23283;DHT22;11810;51.178;3.878;2023-03-21T09:14:32;14.30;99.90
23283;DHT22;11810;51.178;3.878;2023-03-21T09:17:00;14.20;99.90
23283;DHT22;11810;51.178;3.878;2023-03-21T09:19:26;14.10;99.90
23283;DHT22;11810;51.178;3.878;2023-03-21T09:21:53;13.90;99.90
23283;DHT22;11810;51.178;3.878;2023-03-21T09:24:20;14.00;99.90
23283;DHT22;11810;51.178;3.878;2023-03-21T09:26:46;14.10;99.90
23283;DHT22;11810;51.178;3.878;2023-03-21T09:29:16;14.10;99.90
23283;DHT22;11810;51.178;3.878;2023-03-21T09:31:43;14.30;99.90
23283;DHT22;11810;51.178;3.878;2023-03-21T09:34:11;14.30;99.90
23283;DHT22;11810;51.178;3.878;2023-03-21T09:36:40;14.10;99.90
23283;DHT22;11810;51.178;3.878;2023-03-21T09:39:06;14.00;99.90
23283;DHT22;11810;51.178;3.878;2023-03-21T09:47:48;14.00;99.90
23283;DHT22;11810;51.178;3.878;2023-03-21T09:50:31;14.00;99.90
23283;DHT22;11810;51.178;3.878;2023-03-21T09:52:59;14.10;99.90
23283;DHT22;11810;51.178;3.878;2023-03-21T09:55:29;14.10;99.90
23283;DHT22;11810;51.178;3.878;2023-03-21T10:00:37;13.90;99.90
23283;DHT22;11810;51.178;3.878;2023-03-21T10:03:22;13.50;99.90
23283;DHT22;11810;51.178;3.878;2023-03-21T10:05:53;13.80;99.90
23283;DHT22;11810;51.178;3.878;2023-03-21T10:08:32;13.50;99.90
23283;DHT22;11810;51.178;3.878;2023-03-21T10:11:23;13.30;99.90
23283;DHT22;11810;51.178;3.878;2023-03-21T10:14:00;13.40;99.90
23283;DHT22;11810;51.178;3.878;2023-03-21T10:16:39;13.30;99.90
23283;DHT22;11810;51.178;3.878;2023-03-21T10:19:14;13.30;99.90
23283;DHT22;11810;51.178;3.878;2023-03-21T10:21:44;13.20;99.90
23283;DHT22;11810;51.178;3.878;2023-03-21T10:24:14;13.20;99.90
23283;DHT22;11810;51.178;3.878;2023-03-21T10:26:42;13.30;99.90
23283;DHT22;11810;51.178;3.878;2023-03-21T10:29:10;13.30;99.90
23283;DHT22;11810;51.178;3.878;2023-03-21T10:31:37;13.40;99.90
23283;DHT22;11810;51.178;3.878;2023-03-21T10:34:43;13.60;99.90
23283;DHT22;11810;51.178;3.878;2023-03-21T10:37:02;13.70;99.90
23283;DHT22;11810;51.178;3.878;2023-03-21T10:39:41;13.50;99.90
23283;DHT22;11810;51.178;3.878;2023-03-21T10:42:28;13.50;99.90
23283;DHT22;11810;51.178;3.878;2023-03-21T10:44:56;13.30;99.90
23283;DHT22;11810;51.178;3.878;2023-03-21T10:47:32;13.20;99.90
23283;DHT22;11810;51.178;3.878;2023-03-21T10:50:07;13.00;99.90
23283;DHT22;11810;51.178;3.878;2023-03-21T10:52:41;13.20;99.90
23283;DHT22;11810;51.178;3.878;2023-03-21T10:55:27;13.70;99.90
23283;DHT22;11810;51.178;3.878;2023-03-21T10:58:07;14.20;99.90
23283;DHT22;11810;51.178;3.878;2023-03-21T11:00:39;15.50;99.90
23283;DHT22;11810;51.178;3.878;2023-03-21T11:03:16;17.20;99.90
23283;DHT22;11810;51.178;3.878;2023-03-21T11:05:46;17.50;99.90
23283;DHT22;11810;51.178;3.878;2023-03-21T11:08:14;16.70;99.90
23283;DHT22;11810;51.178;3.878;2023-03-21T11:10:53;16.60;99.90
23283;DHT22;11810;51.178;3.878;2023-03-21T11:13:25;17.20;99.90
23283;DHT22;11810;51.178;3.878;2023-03-21T11:15:58;17.90;99.90
23283;DHT22;11810;51.178;3.878;2023-03-21T11:18:30;18.10;99.90
23283;DHT22;11810;51.178;3.878;2023-03-21T11:21:01;17.70;99.90
23283;DHT22;11810;51.178;3.878;2023-03-21T11:23:33;16.80;99.90
23283;DHT22;11810;51.178;3.878;2023-03-21T11:26:00;16.30;99.90
23283;DHT22;11810;51.178;3.878;2023-03-21T11:28:35;16.20;99.90
23283;DHT22;11810;51.178;3.878;2023-03-21T11:31:03;16.20;99.90
23283;DHT22;11810;51.178;3.878;2023-03-21T11:33:36;16.80;99.90
23283;DHT22;11810;51.178;3.878;2023-03-21T11:36:30;17.30;99.90
23283;DHT22;11810;51.178;3.878;2023-03-21T11:39:11;17.30;99.90
23283;DHT22;11810;51.178;3.878;2023-03-21T11:41:40;17.20;99.90
23283;DHT22;11810;51.178;3.878;2023-03-21T11:44:32;17.00;99.90
23283;DHT22;11810;51.178;3.878;2023-03-21T11:46:59;16.60;99.90
23283;DHT22;11810;51.178;3.878;2023-03-21T11:49:26;16.20;99.90
23283;DHT22;11810;51.178;3.878;2023-03-21T11:52:21;16.00;99.90
23283;DHT22;11810;51.178;3.878;2023-03-21T11:55:07;16.20;99.90
23283;DHT22;11810;51.178;3.878;2023-03-21T12:05:54;15.70;99.90
23283;DHT22;11810;51.178;3.878;2023-03-21T12:08:39;16.10;99.90
23283;DHT22;11810;51.178;3.878;2023-03-21T12:33:52;15.90;99.90
23283;DHT22;11810;51.178;3.878;2023-03-21T12:39:26;15.30;99.90
23283;DHT22;11810;51.178;3.878;2023-03-21T12:42:08;15.20;99.90
23283;DHT22;11810;51.178;3.878;2023-03-21T12:44:42;15.10;99.90
23283;DHT22;11810;51.178;3.878;2023-03-21T12:49:56;15.30;99.90
23283;DHT22;11810;51.178;3.878;2023-03-21T12:52:35;15.40;99.90
23283;DHT22;11810;51.178;3.878;2023-03-21T12:55:12;15.20;99.90
23283;DHT22;11810;51.178;3.878;2023-03-21T12:57:52;15.10;99.90
23283;DHT22;11810;51.178;3.878;2023-03-21T13:03:13;15.00;99.90
23283;DHT22;11810;51.178;3.878;2023-03-21T13:08:25;14.20;99.90
23283;DHT22;11810;51.178;3.878;2023-03-21T13:10:54;14.50;99.90
23283;DHT22;11810;51.178;3.878;2023-03-21T13:13:54;14.70;99.90
23283;DHT22;11810;51.178;3.878;2023-03-21T13:19:23;14.80;99.90
23283;DHT22;11810;51.178;3.878;2023-03-21T13:29:46;14.20;99.90
23283;DHT22;11810;51.178;3.878;2023-03-21T13:35:22;14.50;99.90
23283;DHT22;11810;51.178;3.878;2023-03-21T13:40:40;14.20;99.90
23283;DHT22;11810;51.178;3.878;2023-03-21T13:49:31;14.20;99.90
23283;DHT22;11810;51.178;3.878;2023-03-21T14:04:39;13.70;99.90
23283;DHT22;11810;51.178;3.878;2023-03-21T14:09:37;13.70;99.90
23283;DHT22;11810;51.178;3.878;2023-03-21T14:12:07;13.90;99.90
23283;DHT22;11810;51.178;3.878;2023-03-21T14:14:40;13.70;99.90
23283;DHT22;11810;51.178;3.878;2023-03-21T14:17:28;13.70;99.90
23283;DHT22;11810;51.178;3.878;2023-03-21T14:22:38;13.40;99.90
23283;DHT22;11810;51.178;3.878;2023-03-21T14:25:09;13.30;99.90
23283;DHT22;11810;51.178;3.878;2023-03-21T14:27:35;13.40;99.90
23283;DHT22;11810;51.178;3.878;2023-03-21T14:30:04;13.50;99.90
23283;DHT22;11810;51.178;3.878;2023-03-21T14:32:30;13.60;99.90
23283;DHT22;11810;51.178;3.878;2023-03-21T14:34:59;13.80;99.90
23283;DHT22;11810;51.178;3.878;2023-03-21T14:37:37;13.80;99.90
23283;DHT22;11810;51.178;3.878;2023-03-21T14:40:06;13.80;99.90
23283;DHT22;11810;51.178;3.878;2023-03-21T14:42:37;13.90;99.90
23283;DHT22;11810;51.178;3.878;2023-03-21T14:45:22;13.90;99.90
23283;DHT22;11810;51.178;3.878;2023-03-21T14:47:56;13.90;99.90
23283;DHT22;11810;51.178;3.878;2023-03-21T14:50:31;14.00;99.90
23283;DHT22;11810;51.178;3.878;2023-03-21T14:52:59;14.00;99.90
23283;DHT22;11810;51.178;3.878;2023-03-21T14:55:25;14.30;99.90
23283;DHT22;11810;51.178;3.878;2023-03-21T14:57:54;14.40;99.90
23283;DHT22;11810;51.178;3.878;2023-03-21T15:00:27;14.50;99.90
23283;DHT22;11810;51.178;3.878;2023-03-21T15:02:56;14.70;99.90
23283;DHT22;11810;51.178;3.878;2023-03-21T15:05:29;14.70;99.90
23283;DHT22;11810;51.178;3.878;2023-03-21T15:10:25;14.70;99.90
23283;DHT22;11810;51.178;3.878;2023-03-21T15:12:55;14.60;99.90
23283;DHT22;11810;51.178;3.878;2023-03-21T15:15:22;14.60;99.90
23283;DHT22;11810;51.178;3.878;2023-03-21T15:17:49;14.70;99.90
23283;DHT22;11810;51.178;3.878;2023-03-21T15:20:18;14.60;99.90
23283;DHT22;11810;51.178;3.878;2023-03-21T15:22:53;14.60;99.90
23283;DHT22;11810;51.178;3.878;2023-03-21T15:25:24;14.70;99.90
23283;DHT22;11810;51.178;3.878;2023-03-21T15:27:53;14.80;99.90
23283;DHT22;11810;51.178;3.878;2023-03-21T15:30:26;14.60;99.90
23283;DHT22;11810;51.178;3.878;2023-03-21T15:32:54;14.60;99.90
23283;DHT22;11810;51.178;3.878;2023-03-21T15:35:37;14.80;99.90
23283;DHT22;11810;51.178;3.878;2023-03-21T15:38:04;14.80;99.90
23283;DHT22;11810;51.178;3.878;2023-03-21T15:40:32;15.00;99.90
23283;DHT22;11810;51.178;3.878;2023-03-21T15:43:15;15.10;99.90
23283;DHT22;11810;51.178;3.878;2023-03-21T15:45:53;15.20;99.90
23283;DHT22;11810;51.178;3.878;2023-03-21T15:48:27;15.00;99.90
23283;DHT22;11810;51.178;3.878;2023-03-21T15:51:02;15.00;99.90
23283;DHT22;11810;51.178;3.878;2023-03-21T15:53:32;15.10;99.90
23283;DHT22;11810;51.178;3.878;2023-03-21T15:55:59;15.30;99.90
23283;DHT22;11810;51.178;3.878;2023-03-21T15:58:33;15.70;99.90
23283;DHT22;11810;51.178;3.878;2023-03-21T16:01:05;15.90;99.90
23283;DHT22;11810;51.178;3.878;2023-03-21T16:03:36;15.80;99.90
23283;DHT22;11810;51.178;3.878;2023-03-21T16:06:13;15.50;99.90
23283;DHT22;11810;51.178;3.878;2023-03-21T16:08:52;15.30;99.90
23283;DHT22;11810;51.178;3.878;2023-03-21T16:13:47;15.00;99.90
23283;DHT22;11810;51.178;3.878;2023-03-21T16:16:23;14.90;99.90
23283;DHT22;11810;51.178;3.878;2023-03-21T16:18:50;15.00;99.90
23283;DHT22;11810;51.178;3.878;2023-03-21T16:21:18;15.00;99.90
23283;DHT22;11810;51.178;3.878;2023-03-21T16:23:46;15.10;99.90
23283;DHT22;11810;51.178;3.878;2023-03-21T16:26:24;15.00;99.90
23283;DHT22;11810;51.178;3.878;2023-03-21T16:28:50;15.00;99.90
23283;DHT22;11810;51.178;3.878;2023-03-21T16:31:22;15.00;99.90
23283;DHT22;11810;51.178;3.878;2023-03-21T16:33:48;14.90;99.90
23283;DHT22;11810;51.178;3.878;2023-03-21T16:36:21;14.80;99.90
23283;DHT22;11810;51.178;3.878;2023-03-21T16:38:48;14.80;99.90
23283;DHT22;11810;51.178;3.878;2023-03-21T16:41:15;14.80;99.90
23283;DHT22;11810;51.178;3.878;2023-03-21T16:43:42;14.90;99.90
23283;DHT22;11810;51.178;3.878;2023-03-21T16:46:16;14.70;99.90
23283;DHT22;11810;51.178;3.878;2023-03-21T16:48:44;14.70;99.90
23283;DHT22;11810;51.178;3.878;2023-03-21T16:51:16;14.70;99.90
23283;DHT22;11810;51.178;3.878;2023-03-21T16:53:43;14.50;99.90
23283;DHT22;11810;51.178;3.878;2023-03-21T16:56:14;14.30;99.90
23283;DHT22;11810;51.178;3.878;2023-03-21T16:58:41;14.20;99.90
23283;DHT22;11810;51.178;3.878;2023-03-21T17:01:18;14.10;99.90
23283;DHT22;11810;51.178;3.878;2023-03-21T17:03:46;14.20;99.90
23283;DHT22;11810;51.178;3.878;2023-03-21T17:06:14;14.10;99.90
23283;DHT22;11810;51.178;3.878;2023-03-21T17:08:41;14.00;99.90
23283;DHT22;11810;51.178;3.878;2023-03-21T17:11:14;13.80;99.90
23283;DHT22;11810;51.178;3.878;2023-03-21T17:13:48;13.70;99.90
23283;DHT22;11810;51.178;3.878;2023-03-21T17:16:20;13.70;99.90
23283;DHT22;11810;51.178;3.878;2023-03-21T17:18:47;13.60;99.90
23283;DHT22;11810;51.178;3.878;2023-03-21T17:21:16;13.60;99.90
23283;DHT22;11810;51.178;3.878;2023-03-21T17:23:42;13.40;99.90
23283;DHT22;11810;51.178;3.878;2023-03-21T17:26:10;13.30;99.90
23283;DHT22;11810;51.178;3.878;2023-03-21T17:28:38;13.30;99.90
23283;DHT22;11810;51.178;3.878;2023-03-21T17:31:14;13.30;99.90
23283;DHT22;11810;51.178;3.878;2023-03-21T17:33:41;13.30;99.90
23283;DHT22;11810;51.178;3.878;2023-03-21T17:36:14;13.40;99.90
23283;DHT22;11810;51.178;3.878;2023-03-21T17:38:41;13.50;99.90
23283;DHT22;11810;51.178;3.878;2023-03-21T17:41:16;13.40;99.90
23283;DHT22;11810;51.178;3.878;2023-03-21T17:43:42;13.30;99.90
23283;DHT22;11810;51.178;3.878;2023-03-21T17:46:19;13.20;99.90
23283;DHT22;11810;51.178;3.878;2023-03-21T17:48:47;13.20;99.90
23283;DHT22;11810;51.178;3.878;2023-03-21T17:51:13;13.20;99.90
23283;DHT22;11810;51.178;3.878;2023-03-21T17:53:41;13.10;99.90
23283;DHT22;11810;51.178;3.878;2023-03-21T17:56:33;13.00;99.90
23283;DHT22;11810;51.178;3.878;2023-03-21T17:59:04;12.80;99.90
23283;DHT22;11810;51.178;3.878;2023-03-21T18:01:32;12.70;99.90